Terminal Aerodrome Forecast
Issued by NWS New Orleans/Baton Rouge, LA

Current Version | Previous Version | Text Only | Print | Product List | Glossary On
Versions: 1 2 3 4 5 6 7 8 9 10 11 12 13
000
FTUS44 KLIX 301140
TAFBTR
TAF
KBTR 301140Z 3012/3112 00000KT P6SM SKC
     FM301900 36005KT P6SM SCT040 BKN250
      TEMPO 3021/3101 VRB15G25KT 1SM TSRA BR BKN020CB
     FM310200 35004KT P6SM SCT040 SCT250=

USA.gov is the U.S. government's official web portal to all federal, state and local government web resources and services.